createdAt,value
2022-11-28T00:01:50.006Z,101086.78
2022-11-28T00:04:52.358Z,101088.72
2022-11-28T00:07:55.636Z,101092.25
2022-11-28T00:10:57.263Z,101082.94
2022-11-28T00:13:58.941Z,101091.16
2022-11-28T00:17:00.672Z,101090.31
2022-11-28T00:20:02.233Z,101098.53
2022-11-28T00:23:03.821Z,101091.97
2022-11-28T00:26:08.557Z,101098.25
2022-11-28T00:29:11.015Z,101092.78
2022-11-28T00:32:12.721Z,101097.13
2022-11-28T00:35:14.337Z,101094.09
2022-11-28T00:38:15.924Z,101094.09
2022-11-28T00:41:23.438Z,101093.31
2022-11-28T00:44:25.006Z,101104.28
2022-11-28T00:47:26.533Z,101103.47
2022-11-28T00:50:28.053Z,101102.44
2022-11-28T00:53:29.586Z,101104.66
2022-11-28T00:56:38.996Z,101108.78
2022-11-28T00:59:40.614Z,101100.06
2022-11-28T01:02:42.250Z,101094.97
2022-11-28T01:05:43.936Z,101103.97
2022-11-28T01:08:45.457Z,101103.44
2022-11-28T01:11:49.149Z,101099.38
2022-11-28T01:14:50.712Z,101105.13
2022-11-28T01:17:52.261Z,101100.25
2022-11-28T01:20:53.798Z,101098.09
2022-11-28T01:23:55.341Z,101104.66
2022-11-28T01:26:56.872Z,101100.03
2022-11-28T01:29:58.465Z,101097.81
2022-11-28T01:32:59.992Z,101092.94
2022-11-28T01:36:01.821Z,101098.41
2022-11-28T01:39:03.561Z,101087.78
2022-11-28T01:42:05.395Z,101055.25
2022-11-28T01:45:20.637Z,101092.41
2022-11-28T01:48:26.355Z,101084.53
2022-11-28T01:51:28.344Z,101076.63
2022-11-28T01:54:31.537Z,101047.91
2022-11-28T01:57:33.270Z,101047.31
2022-11-28T02:00:34.962Z,101056.19
2022-11-28T02:03:44.243Z,101049.09
2022-11-28T02:06:45.784Z,101056.19
2022-11-28T02:09:47.320Z,101051.53
2022-11-28T02:13:14.019Z,101043.63
2022-11-28T02:16:27.607Z,101045.28
2022-11-28T02:19:50.770Z,101043.13
2022-11-28T02:23:07.634Z,101042.03
2022-11-28T02:26:15.019Z,101046.66
2022-11-28T02:29:31.691Z,101041.50
2022-11-28T02:32:57.749Z,101033.31
2022-11-28T02:36:24.510Z,101034.13
2022-11-28T02:39:29.343Z,101023.19
2022-11-28T02:42:30.790Z,101024.31
2022-11-28T02:45:42.577Z,101030.88
2022-11-28T02:48:45.981Z,101020.78
2022-11-28T02:51:48.316Z,101028.12
2022-11-28T02:54:53.636Z,101024.31
2022-11-28T02:57:55.819Z,101018.88
2022-11-28T03:00:57.776Z,101013.41
2022-11-28T03:04:17.876Z,101014.22
2022-11-28T03:07:35.769Z,101012.28
2022-11-28T03:10:49.346Z,101011.19
2022-11-28T03:13:58.305Z,101016.66
2022-11-28T03:17:15.012Z,101019.06
2022-11-28T03:20:35.259Z,101012.78
2022-11-28T03:23:39.466Z,101012.78
2022-11-28T03:26:46.880Z,101007.63
2022-11-28T03:30:04.111Z,101012.28
2022-11-28T03:33:06.219Z,101006.31
2022-11-28T03:36:13.159Z,101002.75
2022-11-28T03:39:17.361Z,100999.25
2022-11-28T03:42:29.484Z,100984.78
2022-11-28T03:45:41.800Z,100980.72
2022-11-28T03:48:46.683Z,100967.56
2022-11-28T03:51:53.688Z,100971.75
2022-11-28T03:55:09.670Z,100955.81
2022-11-28T03:58:39.243Z,100949.69
2022-11-28T04:02:07.053Z,100949.81
2022-11-28T04:05:20.547Z,100949.50
2022-11-28T04:08:25.357Z,100939.25
2022-11-28T04:11:33.671Z,100938.47
2022-11-28T04:14:39.895Z,100939.38
2022-11-28T04:18:04.679Z,100934.31
2022-11-28T04:21:12.906Z,100927.06
2022-11-28T04:24:46.482Z,100932.25
2022-11-28T04:27:51.418Z,100935.41
2022-11-28T04:30:53.913Z,100932.00
2022-11-28T04:33:59.491Z,100931.50
2022-11-28T04:37:05.586Z,100932.56
2022-11-28T04:40:11.398Z,100924.78
2022-11-28T04:43:35.483Z,100890.87
2022-11-28T04:46:40.886Z,100896.91
2022-11-28T04:49:42.465Z,100923.75
2022-11-28T04:52:57.421Z,100929.75
2022-11-28T04:56:03.651Z,100925.37
2022-11-28T04:59:06.042Z,100928.28
2022-11-28T05:02:07.759Z,100930.12
2022-11-28T05:05:16.817Z,100932.75
2022-11-28T05:08:20.029Z,100933.81
2022-11-28T05:11:21.658Z,100925.22
2022-11-28T05:14:23.372Z,100923.72
2022-11-28T05:17:24.964Z,100928.75
2022-11-28T05:20:26.928Z,100931.75
2022-11-28T05:23:28.462Z,100934.88
2022-11-28T05:26:32.521Z,100931.50
2022-11-28T05:29:34.489Z,100929.81
2022-11-28T05:32:36.564Z,100930.94
2022-11-28T05:35:39.889Z,100933.84
2022-11-28T05:38:42.693Z,100931.34
2022-11-28T05:41:44.246Z,100935.75
2022-11-28T05:44:45.826Z,100943.62
2022-11-28T05:47:47.346Z,100942.34
2022-11-28T05:50:50.798Z,100941.47
2022-11-28T05:53:52.415Z,100948.25
2022-11-28T05:56:54.018Z,100959.41
2022-11-28T05:59:56.202Z,100936.03
2022-11-28T06:03:01.273Z,100954.69
2022-11-28T06:06:03.398Z,100966.97
2022-11-28T06:09:06.224Z,100961.78
2022-11-28T06:12:08.521Z,100958.47
2022-11-28T06:15:10.826Z,100967.25
2022-11-28T06:18:12.346Z,100955.63
2022-11-28T06:21:14.808Z,100953.56
2022-11-28T06:24:16.347Z,100950.03
2022-11-28T06:27:17.896Z,100953.31
2022-11-28T06:30:19.529Z,100951.66
2022-11-28T06:33:21.194Z,100957.28
2022-11-28T06:36:22.803Z,100954.47
2022-11-28T06:39:24.450Z,100954.94
2022-11-28T06:42:25.965Z,100963.06
2022-11-28T06:45:27.520Z,100960.84
2022-11-28T06:48:29.281Z,100967.06
2022-11-28T06:51:30.804Z,100970.53
2022-11-28T06:54:32.485Z,100973.03
2022-11-28T06:57:34.383Z,100973.56
2022-11-28T07:00:36.188Z,100978.16
2022-11-28T07:03:38.673Z,100988.63
2022-11-28T07:06:40.294Z,100994.25
2022-11-28T07:09:42.166Z,100985.81
2022-11-28T07:12:43.863Z,100988.75
2022-11-28T07:15:52.156Z,100971.56
2022-11-28T07:18:54.317Z,100983.63
2022-11-28T07:21:55.846Z,100990.13
2022-11-28T07:24:57.368Z,100990.59
2022-11-28T07:27:59.937Z,100987.72
2022-11-28T07:31:22.215Z,100985.13
2022-11-28T07:34:23.954Z,100984.00
2022-11-28T07:37:25.603Z,100953.62
2022-11-28T07:40:27.259Z,100987.91
2022-11-28T07:43:28.906Z,100983.16
2022-11-28T07:46:31.993Z,100978.31
2022-11-28T07:49:33.694Z,100964.56
2022-11-28T07:52:35.232Z,100965.00
2022-11-28T07:55:36.778Z,100929.75
2022-11-28T07:58:39.037Z,100954.47
2022-11-28T08:01:40.650Z,100951.97
2022-11-28T08:04:48.402Z,100955.41
2022-11-28T08:07:52.192Z,100961.03
2022-11-28T08:10:58.279Z,100957.03
2022-11-28T08:14:00.190Z,100960.25
2022-11-28T08:17:01.970Z,100956.13
2022-11-28T08:20:04.086Z,100948.31
2022-11-28T08:23:05.647Z,100954.03
2022-11-28T08:26:09.324Z,100950.13
2022-11-28T08:29:11.107Z,100939.91
2022-11-28T08:32:12.642Z,100940.12
2022-11-28T08:35:14.176Z,100947.03
2022-11-28T08:38:15.807Z,100954.69
2022-11-28T08:41:22.175Z,100955.44
2022-11-28T08:44:23.742Z,100931.81
2022-11-28T08:47:25.265Z,100963.13
2022-11-28T08:50:26.789Z,100961.00
2022-11-28T08:53:28.371Z,100952.91
2022-11-28T08:56:29.916Z,100960.19
2022-11-28T08:59:31.450Z,100965.06
2022-11-28T09:02:33.035Z,100965.03
2022-11-28T09:05:34.885Z,100967.16
2022-11-28T09:08:36.466Z,100964.84
2022-11-28T09:11:38.481Z,100958.03
2022-11-28T09:14:40.064Z,100957.53
2022-11-28T09:17:41.581Z,100963.63
2022-11-28T09:20:43.509Z,100956.84
2022-11-28T09:23:45.750Z,100956.03
2022-11-28T09:26:47.564Z,100946.19
2022-11-28T09:29:49.124Z,100952.06
2022-11-28T09:32:50.660Z,100948.44
2022-11-28T09:35:52.197Z,100939.06
2022-11-28T09:38:53.725Z,100941.72
2022-11-28T09:42:22.648Z,100873.38
2022-11-28T09:45:24.902Z,100931.28
2022-11-28T09:48:30.841Z,100931.97
2022-11-28T09:51:50.103Z,100924.69
2022-11-28T09:55:36.663Z,100921.25
2022-11-28T09:58:48.955Z,100909.06
2022-11-28T10:02:09.750Z,100920.19
2022-11-28T10:05:27.722Z,100911.03
2022-11-28T10:08:42.852Z,100904.53
2022-11-28T10:11:47.359Z,100908.84
2022-11-28T10:15:15.326Z,100905.13
2022-11-28T10:18:37.304Z,100895.84
2022-11-28T10:21:42.348Z,100887.19
2022-11-28T10:24:48.957Z,100890.13
2022-11-28T10:27:51.072Z,100885.66
2022-11-28T10:30:57.140Z,100886.62
2022-11-28T10:34:16.385Z,100857.09
2022-11-28T10:37:37.160Z,100884.87
2022-11-28T10:41:12.306Z,100881.66
2022-11-28T10:44:23.602Z,100879.72
2022-11-28T10:47:50.423Z,100871.81
2022-11-28T10:51:20.061Z,100867.16
2022-11-28T10:54:43.567Z,100857.19
2022-11-28T10:58:22.370Z,100861.16
2022-11-28T11:01:38.153Z,100856.69
2022-11-28T11:04:39.818Z,100853.81
2022-11-28T11:07:48.846Z,100855.88
2022-11-28T11:11:02.113Z,100848.03
2022-11-28T11:14:08.700Z,100845.72
2022-11-28T11:17:25.621Z,100842.69
2022-11-28T11:20:29.192Z,100843.09
2022-11-28T11:23:35.252Z,100849.38
2022-11-28T11:26:41.908Z,100840.03
2022-11-28T11:29:45.062Z,100840.13
2022-11-28T11:32:51.391Z,100833.16
2022-11-28T11:35:53.357Z,100802.50
2022-11-28T11:39:10.512Z,100833.13
2022-11-28T11:42:20.938Z,100833.78
2022-11-28T11:45:34.263Z,100835.38
2022-11-28T11:48:46.920Z,100827.75
2022-11-28T11:51:56.726Z,100831.91
2022-11-28T11:54:58.261Z,100824.06
2022-11-28T11:58:05.507Z,100825.00
2022-11-28T12:01:08.073Z,100825.41
2022-11-28T12:04:43.227Z,100820.47
2022-11-28T12:07:43.147Z,100817.28
2022-11-28T12:11:04.543Z,100822.03
2022-11-28T12:14:26.254Z,100820.53
2022-11-28T12:17:48.274Z,100825.69
2022-11-28T12:21:00.474Z,100821.84
2022-11-28T12:24:15.221Z,100817.53
2022-11-28T12:27:53.611Z,100813.09
2022-11-28T12:30:58.121Z,100749.22
2022-11-28T12:34:38.444Z,100812.50
2022-11-28T12:38:10.600Z,100806.31
2022-11-28T12:41:32.671Z,100810.16
2022-11-28T12:44:39.430Z,100800.63
2022-11-28T12:47:54.851Z,100802.44
2022-11-28T12:51:18.293Z,100802.87
2022-11-28T12:54:29.826Z,100803.66
2022-11-28T12:57:40.362Z,100799.50
2022-11-28T13:00:54.912Z,100796.59
2022-11-28T13:03:59.302Z,100787.50
2022-11-28T13:07:11.461Z,100790.22
2022-11-28T13:10:24.261Z,100787.22
2022-11-28T13:13:47.766Z,100788.22
2022-11-28T13:16:54.845Z,100757.75
2022-11-28T13:20:21.240Z,100775.56
2022-11-28T13:23:46.808Z,100793.44
2022-11-28T13:27:13.639Z,100790.88
2022-11-28T13:30:27.792Z,100781.88
2022-11-28T13:33:51.488Z,100774.06
2022-11-28T13:40:31.376Z,100782.75
2022-11-28T13:43:47.964Z,100773.97
2022-11-28T13:46:51.421Z,100776.22
2022-11-28T13:50:22.375Z,100770.75
2022-11-28T13:53:24.844Z,100777.84
2022-11-28T13:56:27.089Z,100775.53
2022-11-28T13:59:28.675Z,100779.59
2022-11-28T14:02:43.508Z,100785.25
2022-11-28T14:05:45.884Z,100784.97
2022-11-28T14:08:50.140Z,100777.91
2022-11-28T14:12:19.261Z,100773.31
2022-11-28T14:15:38.497Z,100772.34
2022-11-28T14:18:57.795Z,100771.75
2022-11-28T14:22:27.930Z,100756.66
2022-11-28T14:25:35.463Z,100759.50
2022-11-28T14:28:38.169Z,100758.03
2022-11-28T14:31:40.130Z,100693.97
2022-11-28T14:34:46.464Z,100758.75
2022-11-28T14:37:50.418Z,100754.78
2022-11-28T14:41:12.857Z,100753.78
2022-11-28T14:44:51.910Z,100748.94
2022-11-28T14:48:17.235Z,100747.62
2022-11-28T14:51:19.809Z,100756.38
2022-11-28T14:54:35.536Z,100744.16
2022-11-28T14:57:40.200Z,100707.94
2022-11-28T15:00:55.348Z,100745.06
2022-11-28T15:04:26.530Z,100744.81
2022-11-28T15:07:46.536Z,100754.56
2022-11-28T15:10:50.331Z,100750.00
2022-11-28T15:14:12.378Z,100749.44
2022-11-28T15:17:14.525Z,100752.16
2022-11-28T15:20:21.780Z,100752.69
2022-11-28T15:23:30.535Z,100752.97
2022-11-28T15:26:32.100Z,100759.75
2022-11-28T15:29:35.186Z,100755.94
2022-11-28T15:32:36.747Z,100766.22
2022-11-28T15:35:38.873Z,100761.06
2022-11-28T15:38:42.130Z,100761.84
2022-11-28T15:41:45.681Z,100762.91
2022-11-28T15:44:47.530Z,100744.97
2022-11-28T15:47:50.340Z,100769.69
2022-11-28T15:50:51.857Z,100767.25
2022-11-28T15:53:53.491Z,100771.56
2022-11-28T15:56:58.930Z,100769.34
2022-11-28T16:00:01.493Z,100773.91
2022-11-28T16:03:03.422Z,100781.16
2022-11-28T16:06:05.884Z,100780.88
2022-11-28T16:09:24.331Z,100777.44
2022-11-28T16:12:26.809Z,100784.12
2022-11-28T16:15:29.066Z,100780.38
2022-11-28T16:18:31.208Z,100778.22
2022-11-28T16:21:56.820Z,100777.94
2022-11-28T16:25:11.751Z,100779.28
2022-11-28T16:28:33.638Z,100789.59
2022-11-28T16:31:35.507Z,100787.44
2022-11-28T16:34:49.075Z,100786.09
2022-11-28T16:37:50.679Z,100779.81
2022-11-28T16:40:59.282Z,100778.38
2022-11-28T16:44:05.118Z,100776.16
2022-11-28T16:47:06.684Z,100778.63
2022-11-28T16:50:22.821Z,100777.44
2022-11-28T16:53:44.355Z,100776.50
2022-11-28T16:56:47.440Z,100781.81
2022-11-28T16:59:51.798Z,100736.84
2022-11-28T17:02:53.499Z,100775.44
2022-11-28T17:05:55.014Z,100774.06
2022-11-28T17:08:56.936Z,100775.81
2022-11-28T17:12:03.664Z,100758.03
2022-11-28T17:15:14.146Z,100773.03
2022-11-28T17:18:15.674Z,100779.44
2022-11-28T17:21:22.842Z,100777.34
2022-11-28T17:24:26.746Z,100769.03
2022-11-28T17:27:28.471Z,100777.91
2022-11-28T17:30:30.061Z,100757.53
2022-11-28T17:33:31.640Z,100783.09
2022-11-28T17:36:33.332Z,100782.56
2022-11-28T17:39:34.916Z,100778.28
2022-11-28T17:42:36.624Z,100780.19
2022-11-28T17:45:38.172Z,100790.72
2022-11-28T17:48:39.748Z,100783.31
2022-11-28T17:51:41.578Z,100788.41
2022-11-28T17:54:43.100Z,100786.28
2022-11-28T17:57:44.846Z,100786.25
2022-11-28T18:00:47.998Z,100796.53
2022-11-28T18:03:49.576Z,100787.47
2022-11-28T18:06:51.138Z,100783.56
2022-11-28T18:09:52.661Z,100781.25
2022-11-28T18:12:55.297Z,100783.94
2022-11-28T18:15:57.322Z,100787.38
2022-11-28T18:18:58.854Z,100783.38
2022-11-28T18:22:00.383Z,100784.56
2022-11-28T18:25:01.909Z,100791.03
2022-11-28T18:28:03.522Z,100782.84
2022-11-28T18:31:14.296Z,100786.53
2022-11-28T18:34:16.809Z,100790.97
2022-11-28T18:37:18.373Z,100794.59
2022-11-28T18:40:19.954Z,100798.72
2022-11-28T18:43:21.485Z,100791.38
2022-11-28T18:46:23.709Z,100794.31
2022-11-28T18:49:25.289Z,100801.16
2022-11-28T18:52:26.821Z,100789.50
2022-11-28T18:55:28.358Z,100791.72
2022-11-28T18:58:36.675Z,100800.16
2022-11-28T19:01:38.310Z,100801.53
2022-11-28T19:04:39.993Z,100797.53
2022-11-28T19:07:41.733Z,100792.97
2022-11-28T19:10:44.676Z,100796.47
2022-11-28T19:13:47.491Z,100789.94
2022-11-28T19:16:49.510Z,100790.97
2022-11-28T19:19:51.790Z,100790.09
2022-11-28T19:22:53.310Z,100786.56
2022-11-28T19:25:54.823Z,100783.00
2022-11-28T19:28:56.892Z,100792.72
2022-11-28T19:31:58.516Z,100794.25
2022-11-28T19:35:00.088Z,100795.56
2022-11-28T19:38:01.605Z,100789.47
2022-11-28T19:41:07.030Z,100793.97
2022-11-28T19:44:11.134Z,100789.66
2022-11-28T19:47:12.693Z,100781.00
2022-11-28T19:50:15.185Z,100781.50
2022-11-28T19:53:17.443Z,100791.97
2022-11-28T19:56:24.858Z,100775.63
2022-11-28T19:59:27.308Z,100797.06
2022-11-28T20:02:28.932Z,100790.47
2022-11-28T20:05:31.733Z,100797.06
2022-11-28T20:08:33.243Z,100798.16
2022-11-28T20:11:36.134Z,100785.19
2022-11-28T20:14:37.674Z,100783.97
2022-11-28T20:17:39.182Z,100787.22
2022-11-28T20:20:40.736Z,100784.66
2022-11-28T20:23:47.643Z,100784.88
2022-11-28T20:26:50.610Z,100782.63
2022-11-28T20:29:52.297Z,100777.16
2022-11-28T20:32:54.340Z,100780.63
2022-11-28T20:36:06.750Z,100778.53
2022-11-28T20:39:09.609Z,100782.00
2022-11-28T20:42:11.404Z,100786.09
2022-11-28T20:45:12.954Z,100781.84
2022-11-28T20:48:14.490Z,100792.31
2022-11-28T20:51:19.112Z,100787.81
2022-11-28T20:54:20.734Z,100782.94
2022-11-28T20:57:22.684Z,100784.56
2022-11-28T21:00:26.753Z,100791.53
2022-11-28T21:03:28.802Z,100788.50
2022-11-28T21:06:30.354Z,100790.00
2022-11-28T21:09:31.904Z,100788.66
2022-11-28T21:12:33.873Z,100787.16
2022-11-28T21:15:39.524Z,100784.09
2022-11-28T21:18:42.223Z,100791.09
2022-11-28T21:21:43.767Z,100796.94
2022-11-28T21:24:49.107Z,100791.34
2022-11-28T21:27:50.638Z,100796.00
2022-11-28T21:30:52.173Z,100797.41
2022-11-28T21:33:55.616Z,100786.00
2022-11-28T21:36:57.134Z,100800.41
2022-11-28T21:39:58.754Z,100799.06
2022-11-28T21:43:00.289Z,100800.66
2022-11-28T21:46:03.256Z,100799.31
2022-11-28T21:49:05.614Z,100805.56
2022-11-28T21:52:09.417Z,100803.63
2022-11-28T21:55:10.997Z,100806.91
2022-11-28T21:58:12.565Z,100810.16
2022-11-28T22:01:14.640Z,100802.03
2022-11-28T22:04:16.603Z,100812.59
2022-11-28T22:07:18.263Z,100802.03
2022-11-28T22:10:19.829Z,100808.53
2022-11-28T22:13:21.348Z,100808.78
2022-11-28T22:16:25.830Z,100805.47
2022-11-28T22:19:27.460Z,100803.28
2022-11-28T22:22:29.831Z,100802.75
2022-11-28T22:25:31.357Z,100801.09
2022-11-28T22:28:34.098Z,100807.31
2022-11-28T22:31:35.842Z,100799.44
2022-11-28T22:34:40.086Z,100796.97
2022-11-28T22:37:41.812Z,100805.66
2022-11-28T22:40:43.370Z,100799.16
2022-11-28T22:43:45.606Z,100804.00
2022-11-28T22:46:47.291Z,100799.94
2022-11-28T22:49:48.808Z,100782.06
2022-11-28T22:52:50.378Z,100783.69
2022-11-28T22:55:51.948Z,100802.09
2022-11-28T22:58:53.553Z,100798.28
2022-11-28T23:01:55.191Z,100801.28
2022-11-28T23:04:57.679Z,100804.81
2022-11-28T23:07:59.285Z,100803.47
2022-11-28T23:11:26.242Z,100786.66
2022-11-28T23:14:28.000Z,100802.66
2022-11-28T23:17:29.537Z,100776.66
2022-11-28T23:20:31.289Z,100811.31
2022-11-28T23:23:33.977Z,100805.88
2022-11-28T23:26:35.610Z,100803.47
2022-11-28T23:29:37.157Z,100803.19
2022-11-28T23:32:38.704Z,100800.19
2022-11-28T23:35:40.230Z,100797.47
2022-11-28T23:38:42.422Z,100809.13
2022-11-28T23:41:44.150Z,100814.28
2022-11-28T23:44:45.929Z,100808.06
2022-11-28T23:47:47.600Z,100805.59
2022-11-28T23:50:49.166Z,100803.97
2022-11-28T23:53:51.355Z,100801.81
2022-11-28T23:56:52.972Z,100800.97
2022-11-28T23:59:54.503Z,100794.72
